Time;durP1;ratioP1;P1;durP2;ratioP2;P2;SDS_P1;SDS_P2;PMS_P1;PMS_P2;Temp;Humidity;BMP_temperature;BMP_pressure;BME280_temperature;BME280_humidity;BME280_pressure;Samples;Min_cycle;Max_cycle;Signal;HPM_P1;HPM_P2
2021/07/07 00:00:44;;;;;;;;;;;21.60;75.50;;;;;;4983355;28;1370;-70
2021/07/07 00:03:09;;;;;;;;;;;21.60;75.50;;;;;;4982533;28;1083;-71
2021/07/07 00:05:35;;;;;;;;;;;21.60;75.50;;;;;;4982921;28;1276;-71
2021/07/07 00:08:00;;;;;;;;;;;21.60;75.50;;;;;;4982658;28;1313;-69
2021/07/07 00:10:32;;;;;;;;;;;21.60;75.50;;;;;;4986422;28;1357;-69
2021/07/07 00:13:02;;;;;;;;;;;21.60;75.60;;;;;;4985164;28;1195;-70
2021/07/07 00:15:31;;;;;;;;;;;21.60;75.50;;;;;;4978005;28;1903;-69
2021/07/07 00:17:56;;;;;;;;;;;21.60;75.50;;;;;;4974626;28;1278;-68
2021/07/07 00:20:22;;;;;;;;;;;21.60;75.50;;;;;;4995268;28;1345;-71
2021/07/07 00:22:47;;;;;;;;;;;21.60;75.60;;;;;;4996365;28;1624;-71
2021/07/07 00:25:13;;;;;;;;;;;21.60;75.60;;;;;;4996867;28;1405;-71
2021/07/07 00:27:38;;;;;;;;;;;21.60;75.60;;;;;;4996518;28;1357;-71
2021/07/07 00:30:07;;;;;;;;;;;21.60;75.60;;;;;;4996858;28;1665;-71
2021/07/07 00:32:32;;;;;;;;;;;21.60;75.60;;;;;;4979293;28;1673;-71
2021/07/07 00:34:58;;;;;;;;;;;21.60;75.60;;;;;;4995915;28;1903;-71
2021/07/07 00:37:23;;;;;;;;;;;21.60;75.60;;;;;;4979660;28;1675;-71
2021/07/07 00:39:48;;;;;;;;;;;21.60;75.60;;;;;;4996391;28;1380;-71
2021/07/07 00:42:14;;;;;;;;;;;21.60;75.70;;;;;;4978877;28;1378;-71
2021/07/07 00:44:39;;;;;;;;;;;21.60;75.60;;;;;;4995736;28;1686;-71
2021/07/07 00:47:05;;;;;;;;;;;21.60;75.70;;;;;;4979221;28;1449;-71
2021/07/07 00:49:30;;;;;;;;;;;21.60;75.70;;;;;;4996239;28;1674;-71
2021/07/07 00:51:56;;;;;;;;;;;21.60;75.70;;;;;;4996445;28;1428;-71
2021/07/07 00:54:21;;;;;;;;;;;21.60;75.70;;;;;;4995592;28;1973;-71
2021/07/07 00:56:48;;;;;;;;;;;21.60;75.70;;;;;;4978711;28;1373;-71
2021/07/07 00:59:13;;;;;;;;;;;21.60;75.70;;;;;;4978734;28;1474;-71
2021/07/07 01:01:39;;;;;;;;;;;21.60;75.70;;;;;;4978719;28;1369;-69
2021/07/07 01:04:04;;;;;;;;;;;21.60;75.70;;;;;;4995663;28;1712;-70
2021/07/07 01:06:30;;;;;;;;;;;21.60;76.50;;;;;;4996168;28;1062;-70
2021/07/07 01:08:55;;;;;;;;;;;21.60;75.80;;;;;;4995980;28;1217;-70
2021/07/07 01:11:21;;;;;;;;;;;21.60;75.70;;;;;;4995812;28;1686;-69
2021/07/07 01:13:46;;;;;;;;;;;21.60;75.70;;;;;;4995360;28;1902;-70
2021/07/07 01:16:11;;;;;;;;;;;21.60;75.80;;;;;;4995936;28;1152;-69
2021/07/07 01:18:37;;;;;;;;;;;21.60;75.80;;;;;;4978616;28;1717;-69
2021/07/07 01:21:02;;;;;;;;;;;21.60;76.50;;;;;;4995554;28;1376;-69
2021/07/07 01:23:28;;;;;;;;;;;21.60;75.80;;;;;;4977612;28;1210;-69
2021/07/07 01:25:53;;;;;;;;;;;21.60;75.80;;;;;;4994747;28;1648;-69
2021/07/07 01:28:20;;;;;;;;;;;21.60;75.80;;;;;;4995453;28;1619;-69
2021/07/07 01:30:45;;;;;;;;;;;21.60;75.80;;;;;;4985882;28;1317;-69
2021/07/07 01:33:10;;;;;;;;;;;21.60;75.80;;;;;;4995067;28;1110;-70
2021/07/07 01:35:36;;;;;;;;;;;21.60;75.80;;;;;;4995484;28;1956;-70
2021/07/07 01:38:01;;;;;;;;;;;21.60;75.80;;;;;;4995145;28;1382;-70
2021/07/07 01:40:27;;;;;;;;;;;21.60;75.80;;;;;;4977977;28;1590;-70
2021/07/07 01:42:52;;;;;;;;;;;21.60;75.90;;;;;;4994647;28;1493;-70
2021/07/07 01:45:18;;;;;;;;;;;21.60;75.80;;;;;;4995184;28;1639;-70
2021/07/07 01:47:43;;;;;;;;;;;21.60;75.80;;;;;;4995294;28;1373;-70
2021/07/07 01:50:11;;;;;;;;;;;21.60;75.90;;;;;;4995474;28;1396;-71
2021/07/07 01:52:36;;;;;;;;;;;21.60;75.90;;;;;;4977857;28;1677;-71
2021/07/07 01:55:03;;;;;;;;;;;21.60;75.90;;;;;;4994407;28;1910;-70
2021/07/07 01:57:43;;;;;;;;;;;21.60;75.90;;;;;;4977691;28;1264;-70
2021/07/07 02:00:09;;;;;;;;;;;21.60;75.90;;;;;;4994988;28;1626;-70
2021/07/07 02:02:34;;;;;;;;;;;21.60;75.90;;;;;;4995244;28;1652;-70
2021/07/07 02:05:00;;;;;;;;;;;21.60;75.90;;;;;;4977291;28;1592;-70
2021/07/07 02:07:25;;;;;;;;;;;21.60;75.90;;;;;;4977478;28;1525;-70
2021/07/07 02:09:51;;;;;;;;;;;21.60;75.90;;;;;;4994616;28;1431;-71
2021/07/07 02:12:16;;;;;;;;;;;21.60;75.90;;;;;;4994756;28;1572;-71
2021/07/07 02:14:41;;;;;;;;;;;21.60;75.90;;;;;;4994288;28;1949;-71
2021/07/07 02:17:07;;;;;;;;;;;21.60;75.90;;;;;;4995108;28;1389;-71
2021/07/07 02:19:32;;;;;;;;;;;21.60;76.00;;;;;;4994608;28;1369;-69
2021/07/07 02:21:58;;;;;;;;;;;21.60;76.00;;;;;;4994520;28;1694;-70
2021/07/07 02:24:23;;;;;;;;;;;21.60;76.00;;;;;;4993987;28;1760;-69
2021/07/07 02:26:48;;;;;;;;;;;21.60;76.00;;;;;;4990836;28;2062;-69
2021/07/07 02:29:14;;;;;;;;;;;21.60;76.00;;;;;;4985343;28;1349;-69
2021/07/07 02:31:39;;;;;;;;;;;21.60;76.00;;;;;;4994632;28;1373;-69
2021/07/07 02:34:05;;;;;;;;;;;21.60;76.00;;;;;;4993974;28;1961;-69
2021/07/07 02:36:30;;;;;;;;;;;21.60;76.00;;;;;;4994058;28;1314;-70
2021/07/07 02:38:56;;;;;;;;;;;21.60;76.00;;;;;;4994281;28;1596;-69
2021/07/07 02:41:21;;;;;;;;;;;21.60;76.00;;;;;;4977083;28;1446;-68
2021/07/07 02:43:47;;;;;;;;;;;21.60;76.00;;;;;;4993773;28;1647;-69
2021/07/07 02:46:12;;;;;;;;;;;21.60;76.00;;;;;;4994193;28;1381;-69
2021/07/07 02:48:37;;;;;;;;;;;21.60;76.00;;;;;;4994247;28;1336;-68
2021/07/07 02:51:03;;;;;;;;;;;21.60;76.00;;;;;;4976580;28;1372;-69
2021/07/07 02:53:28;;;;;;;;;;;21.60;76.00;;;;;;4992906;28;1891;-69
2021/07/07 02:55:54;;;;;;;;;;;21.60;76.00;;;;;;4994213;28;1683;-69
2021/07/07 02:58:19;;;;;;;;;;;21.60;76.00;;;;;;4994075;28;1648;-69
2021/07/07 03:00:46;;;;;;;;;;;21.60;76.00;;;;;;4993794;28;1660;-69
2021/07/07 03:03:12;;;;;;;;;;;21.60;76.00;;;;;;4992932;28;1433;-69
2021/07/07 03:05:38;;;;;;;;;;;21.60;76.10;;;;;;4993847;28;1678;-69
2021/07/07 03:08:04;;;;;;;;;;;21.60;76.00;;;;;;4993619;28;1430;-69
2021/07/07 03:10:30;;;;;;;;;;;21.60;76.00;;;;;;4989824;28;1436;-70
2021/07/07 03:12:55;;;;;;;;;;;21.60;76.10;;;;;;4983645;28;1659;-69
2021/07/07 03:15:21;;;;;;;;;;;21.60;76.00;;;;;;4976411;28;1969;-70
2021/07/07 03:17:46;;;;;;;;;;;21.60;76.00;;;;;;4993702;28;1379;-70
2021/07/07 03:20:12;;;;;;;;;;;21.60;76.10;;;;;;4959962;28;1610;-70
2021/07/07 03:22:37;;;;;;;;;;;21.60;76.00;;;;;;4993074;28;1704;-70
2021/07/07 03:25:04;;;;;;;;;;;21.60;76.00;;;;;;4975456;28;1456;-70
2021/07/07 03:27:29;;;;;;;;;;;21.60;76.00;;;;;;4993806;28;1404;-70
2021/07/07 03:29:54;;;;;;;;;;;21.60;76.10;;;;;;4993210;28;1537;-70
2021/07/07 03:32:20;;;;;;;;;;;21.60;76.10;;;;;;4993547;28;1374;-69
2021/07/07 03:34:45;;;;;;;;;;;21.60;76.10;;;;;;4992631;28;1957;-70
2021/07/07 03:37:11;;;;;;;;;;;21.60;76.10;;;;;;4993420;28;1254;-70
2021/07/07 03:39:36;;;;;;;;;;;21.60;76.10;;;;;;4992890;28;1678;-70
2021/07/07 03:42:02;;;;;;;;;;;21.60;76.10;;;;;;4993259;28;1632;-70
2021/07/07 03:44:27;;;;;;;;;;;21.60;76.10;;;;;;4992727;28;1386;-70
2021/07/07 03:46:52;;;;;;;;;;;21.60;76.10;;;;;;4993558;28;1195;-70
2021/07/07 03:49:18;;;;;;;;;;;21.60;76.10;;;;;;4992489;28;1462;-70
2021/07/07 03:51:43;;;;;;;;;;;21.60;76.10;;;;;;5026365;22;2935;-67
2021/07/07 03:54:09;;;;;;;;;;;21.60;76.10;;;;;;5010902;28;1898;-66
2021/07/07 03:56:34;;;;;;;;;;;21.60;76.10;;;;;;5012824;28;1704;-66
2021/07/07 03:58:59;;;;;;;;;;;21.60;76.10;;;;;;5012713;28;1386;-66
2021/07/07 04:01:25;;;;;;;;;;;21.60;76.10;;;;;;5000452;28;1401;-67
2021/07/07 04:03:50;;;;;;;;;;;21.60;76.10;;;;;;4992334;28;1369;-67
2021/07/07 04:06:16;;;;;;;;;;;21.60;76.10;;;;;;4993055;28;1668;-66
2021/07/07 04:08:41;;;;;;;;;;;21.60;76.10;;;;;;4992687;28;1389;-67
2021/07/07 04:11:07;;;;;;;;;;;21.60;76.10;;;;;;4992991;28;1426;-67
2021/07/07 04:13:32;;;;;;;;;;;21.60;76.10;;;;;;4991752;28;1910;-67
2021/07/07 04:15:58;;;;;;;;;;;21.60;76.10;;;;;;4992928;28;1184;-67
2021/07/07 04:18:23;;;;;;;;;;;21.60;76.90;;;;;;4992605;28;1406;-67
2021/07/07 04:20:48;;;;;;;;;;;21.60;76.10;;;;;;4992785;28;1623;-66
2021/07/07 04:23:14;;;;;;;;;;;21.60;76.10;;;;;;4974524;28;1680;-67
2021/07/07 04:25:39;;;;;;;;;;;21.60;76.10;;;;;;4992736;28;1344;-67
2021/07/07 04:28:06;;;;;;;;;;;21.60;76.10;;;;;;4992740;28;1402;-67
2021/07/07 04:30:31;;;;;;;;;;;21.60;76.20;;;;;;4959668;28;1337;-67
2021/07/07 04:32:57;;;;;;;;;;;21.60;76.20;;;;;;4992603;28;1399;-66
2021/07/07 04:35:22;;;;;;;;;;;21.60;76.10;;;;;;4993188;28;1898;-67
2021/07/07 04:37:48;;;;;;;;;;;21.60;76.10;;;;;;4992247;28;1440;-66
2021/07/07 04:40:14;;;;;;;;;;;21.60;76.10;;;;;;4975570;28;1403;-66
2021/07/07 04:42:39;;;;;;;;;;;21.60;76.10;;;;;;4992644;28;1480;-66
2021/07/07 04:45:05;;;;;;;;;;;21.60;76.10;;;;;;4992113;28;1605;-66
2021/07/07 04:47:31;;;;;;;;;;;21.60;76.20;;;;;;4992429;28;1448;-66
2021/07/07 04:49:56;;;;;;;;;;;21.60;76.20;;;;;;4992532;28;1745;-66
2021/07/07 04:52:22;;;;;;;;;;;21.60;76.10;;;;;;4974802;28;1552;-66
2021/07/07 04:54:47;;;;;;;;;;;21.60;76.10;;;;;;4991901;28;1957;-67
2021/07/07 04:57:12;;;;;;;;;;;21.60;76.10;;;;;;4992562;28;1399;-66
2021/07/07 04:59:38;;;;;;;;;;;21.60;76.10;;;;;;4992923;28;1356;-66
2021/07/07 05:02:03;;;;;;;;;;;21.60;76.00;;;;;;4996110;28;1445;-66
2021/07/07 05:04:29;;;;;;;;;;;21.60;76.00;;;;;;4995422;28;1360;-66
2021/07/07 05:06:54;;;;;;;;;;;21.60;76.00;;;;;;4978150;28;1577;-66
2021/07/07 05:09:20;;;;;;;;;;;21.60;76.00;;;;;;4996228;28;1360;-66
2021/07/07 05:11:45;;;;;;;;;;;21.60;76.00;;;;;;4994959;28;1540;-67
2021/07/07 05:14:10;;;;;;;;;;;21.60;76.10;;;;;;4995167;28;1910;-66
2021/07/07 05:16:36;;;;;;;;;;;21.60;76.10;;;;;;4995814;28;1485;-67
2021/07/07 05:19:01;;;;;;;;;;;21.60;76.00;;;;;;4987244;28;1860;-66
2021/07/07 05:21:27;;;;;;;;;;;21.60;76.00;;;;;;4985795;28;1934;-66
2021/07/07 05:23:52;;;;;;;;;;;21.60;76.10;;;;;;4993554;28;1527;-66
2021/07/07 05:26:17;;;;;;;;;;;21.60;76.10;;;;;;4994973;28;1485;-67
2021/07/07 05:28:43;;;;;;;;;;;21.60;76.10;;;;;;4994875;28;1359;-67
2021/07/07 05:31:09;;;;;;;;;;;21.60;76.10;;;;;;4994309;28;1469;-67
2021/07/07 05:33:35;;;;;;;;;;;21.60;76.10;;;;;;4994133;28;1962;-66
2021/07/07 05:36:02;;;;;;;;;;;21.60;76.10;;;;;;4994234;28;1660;-66
2021/07/07 05:38:27;;;;;;;;;;;21.60;76.00;;;;;;4995009;28;1567;-66
2021/07/07 05:40:52;;;;;;;;;;;21.60;76.10;;;;;;4994637;28;1461;-66
2021/07/07 05:43:18;;;;;;;;;;;21.60;76.00;;;;;;4993290;28;1619;-65
2021/07/07 05:45:43;;;;;;;;;;;21.60;76.00;;;;;;4994195;28;1678;-66
2021/07/07 05:48:09;;;;;;;;;;;21.60;76.00;;;;;;4994761;28;1603;-65
2021/07/07 05:50:34;;;;;;;;;;;21.60;75.90;;;;;;4994440;28;1776;-68
2021/07/07 05:53:00;;;;;;;;;;;21.60;75.90;;;;;;4994735;28;1662;-67
2021/07/07 05:55:25;;;;;;;;;;;21.60;75.90;;;;;;4994560;28;1906;-68
2021/07/07 05:57:50;;;;;;;;;;;21.60;75.90;;;;;;4995354;28;1405;-68
2021/07/07 06:00:17;;;;;;;;;;;21.60;75.90;;;;;;4995092;28;1658;-68
2021/07/07 06:02:43;;;;;;;;;;;21.60;75.90;;;;;;4994769;28;1684;-68
2021/07/07 06:05:08;;;;;;;;;;;21.60;75.90;;;;;;4976748;28;1789;-68
2021/07/07 06:07:34;;;;;;;;;;;21.60;75.90;;;;;;4994695;28;1759;-68
2021/07/07 06:09:59;;;;;;;;;;;21.60;75.90;;;;;;4994876;28;1631;-68
2021/07/07 06:12:25;;;;;;;;;;;21.60;75.90;;;;;;4994209;28;1477;-68
2021/07/07 06:14:50;;;;;;;;;;;21.60;75.90;;;;;;4994024;28;1974;-68
2021/07/07 06:17:16;;;;;;;;;;;21.60;75.80;;;;;;4994960;28;1433;-68
2021/07/07 06:19:41;;;;;;;;;;;21.60;75.90;;;;;;4977356;28;813;-68
2021/07/07 06:22:06;;;;;;;;;;;21.60;75.80;;;;;;4994457;28;1263;-67
2021/07/07 06:24:32;;;;;;;;;;;21.60;75.90;;;;;;4994347;28;1643;-68
2021/07/07 06:26:57;;;;;;;;;;;21.60;75.80;;;;;;4994507;28;1707;-68
2021/07/07 06:29:23;;;;;;;;;;;21.60;75.90;;;;;;4984128;28;1955;-68
2021/07/07 06:31:48;;;;;;;;;;;21.60;75.90;;;;;;4993045;28;1660;-68
2021/07/07 06:34:14;;;;;;;;;;;21.60;75.80;;;;;;4992686;28;1887;-68
2021/07/07 06:36:39;;;;;;;;;;;21.60;75.80;;;;;;4994191;28;1396;-68
2021/07/07 06:39:04;;;;;;;;;;;21.60;75.80;;;;;;4976484;28;1517;-68
2021/07/07 06:41:31;;;;;;;;;;;21.60;75.80;;;;;;4994337;28;1683;-68
2021/07/07 06:43:56;;;;;;;;;;;21.60;75.90;;;;;;4993669;28;1362;-67
2021/07/07 06:46:22;;;;;;;;;;;21.60;75.90;;;;;;4986273;28;1434;-67
2021/07/07 06:48:47;;;;;;;;;;;21.60;75.90;;;;;;4994104;28;1128;-67
2021/07/07 06:51:12;;;;;;;;;;;21.60;75.90;;;;;;4994227;28;1421;-67
2021/07/07 06:53:38;;;;;;;;;;;21.60;75.90;;;;;;4992994;28;1965;-67
2021/07/07 06:56:03;;;;;;;;;;;21.60;75.90;;;;;;4976778;28;1707;-67
2021/07/07 06:58:29;;;;;;;;;;;21.60;76.00;;;;;;4994138;28;1666;-67
2021/07/07 07:00:54;;;;;;;;;;;21.60;75.90;;;;;;4993533;28;1531;-67
2021/07/07 07:03:20;;;;;;;;;;;21.60;75.90;;;;;;4992837;28;1372;-67
2021/07/07 07:05:45;;;;;;;;;;;21.60;76.00;;;;;;4993991;28;1635;-66
2021/07/07 07:08:13;;;;;;;;;;;21.60;75.90;;;;;;4993517;28;1564;-67
2021/07/07 07:10:39;;;;;;;;;;;21.60;76.00;;;;;;4988946;28;1657;-68
2021/07/07 07:13:04;;;;;;;;;;;21.60;76.00;;;;;;4984543;28;1133;-68
2021/07/07 07:15:30;;;;;;;;;;;21.60;76.00;;;;;;4976577;28;1962;-68
2021/07/07 07:17:55;;;;;;;;;;;21.60;76.00;;;;;;4993243;28;1196;-68
2021/07/07 07:20:25;;;;;;;;;;;21.60;76.00;;;;;;4993716;28;1643;-66
2021/07/07 07:22:50;;;;;;;;;;;21.60;76.00;;;;;;4975269;28;1181;-66
2021/07/07 07:25:16;;;;;;;;;;;21.60;76.00;;;;;;4992562;28;1373;-67
2021/07/07 07:27:41;;;;;;;;;;;21.60;76.00;;;;;;4993583;28;1404;-67
2021/07/07 07:30:07;;;;;;;;;;;21.60;76.00;;;;;;4993312;28;1697;-67
2021/07/07 07:32:32;;;;;;;;;;;21.60;76.10;;;;;;4993603;28;1661;-67
2021/07/07 07:34:58;;;;;;;;;;;21.60;76.10;;;;;;4992269;28;1894;-67
2021/07/07 07:37:26;;;;;;;;;;;21.60;76.10;;;;;;4993293;28;1265;-68
2021/07/07 07:39:53;;;;;;;;;;;21.60;76.00;;;;;;4993245;28;1434;-68
2021/07/07 07:42:22;;;;;;;;;;;21.60;76.10;;;;;;4993220;28;1687;-68
2021/07/07 07:44:47;;;;;;;;;;;21.60;76.10;;;;;;4992514;28;1442;-67
2021/07/07 07:47:14;;;;;;;;;;;21.60;76.10;;;;;;4992804;28;1673;-67
2021/07/07 07:49:39;;;;;;;;;;;21.60;76.10;;;;;;4975928;28;1414;-68
2021/07/07 07:52:05;;;;;;;;;;;21.60;76.10;;;;;;4992646;28;1671;-67
2021/07/07 07:54:32;;;;;;;;;;;21.60;76.10;;;;;;4991172;28;1950;-67
2021/07/07 07:56:58;;;;;;;;;;;21.60;76.10;;;;;;4993369;28;1602;-67
2021/07/07 07:59:23;;;;;;;;;;;21.60;76.10;;;;;;4975146;28;1434;-67
2021/07/07 08:01:49;;;;;;;;;;;21.60;76.10;;;;;;4992773;28;1374;-67
2021/07/07 08:04:16;;;;;;;;;;;21.60;76.10;;;;;;4992161;28;1423;-67
2021/07/07 08:06:42;;;;;;;;;;;21.60;76.10;;;;;;4993194;28;1372;-67
2021/07/07 08:09:07;;;;;;;;;;;21.60;76.00;;;;;;4992922;28;1609;-67
2021/07/07 08:11:33;;;;;;;;;;;21.60;76.00;;;;;;4992690;28;1481;-67
2021/07/07 08:13:58;;;;;;;;;;;21.60;76.10;;;;;;4992185;28;1957;-67
2021/07/07 08:16:23;;;;;;;;;;;21.60;76.10;;;;;;4992612;28;1605;-67
2021/07/07 08:18:49;;;;;;;;;;;21.60;76.00;;;;;;4975310;28;1662;-67
2021/07/07 08:21:17;;;;;;;;;;;21.60;76.00;;;;;;4992795;28;1450;-67
2021/07/07 08:23:43;;;;;;;;;;;21.60;76.00;;;;;;4991938;28;1610;-67
2021/07/07 08:26:08;;;;;;;;;;;21.60;76.00;;;;;;4992673;28;1368;-67
2021/07/07 08:28:33;;;;;;;;;;;21.60;76.00;;;;;;4992715;28;1655;-67
2021/07/07 08:30:59;;;;;;;;;;;21.60;75.90;;;;;;4992281;28;1389;-66
2021/07/07 08:33:24;;;;;;;;;;;21.60;76.00;;;;;;4991671;28;1431;-67
2021/07/07 08:35:50;;;;;;;;;;;21.60;75.90;;;;;;4995246;28;1914;-67
2021/07/07 08:38:15;;;;;;;;;;;21.60;75.90;;;;;;4996433;28;1676;-67
2021/07/07 08:40:41;;;;;;;;;;;21.60;75.90;;;;;;4996710;28;1524;-67
2021/07/07 08:43:06;;;;;;;;;;;21.60;75.90;;;;;;4995627;28;1500;-67
2021/07/07 08:45:33;;;;;;;;;;;21.60;75.90;;;;;;4996609;28;1684;-67
2021/07/07 08:47:58;;;;;;;;;;;21.60;75.90;;;;;;4979033;28;1630;-67
2021/07/07 08:50:25;;;;;;;;;;;21.60;75.90;;;;;;4996141;28;1617;-67
2021/07/07 08:52:50;;;;;;;;;;;21.60;75.90;;;;;;4977988;28;1367;-66
2021/07/07 08:55:16;;;;;;;;;;;21.60;76.00;;;;;;4978361;28;1911;-67
2021/07/07 08:57:42;;;;;;;;;;;21.60;75.90;;;;;;4988965;28;2251;-67
2021/07/07 09:00:12;;;;;;;;;;;21.60;75.90;;;;;;4993458;28;2449;-68
2021/07/07 09:02:51;;;;;;;;;;;21.60;75.90;;;;;;4993882;28;2258;-67
2021/07/07 09:05:17;;;;;;;;;;;21.60;75.90;;;;;;4971876;28;1107;-66
2021/07/07 09:07:42;;;;;;;;;;;21.60;75.90;;;;;;4996234;28;1598;-66
2021/07/07 09:10:08;;;;;;;;;;;21.60;76.00;;;;;;4996102;28;1591;-66
2021/07/07 09:12:34;;;;;;;;;;;21.60;75.90;;;;;;4988108;28;1497;-65
2021/07/07 09:15:00;;;;;;;;;;;21.60;75.90;;;;;;4989345;28;1969;-65
2021/07/07 09:17:26;;;;;;;;;;;21.60;76.00;;;;;;4972651;28;2088;-65
2021/07/07 09:19:51;;;;;;;;;;;21.60;75.90;;;;;;4980387;28;1198;-65
2021/07/07 09:22:22;;;;;;;;;;;21.60;75.90;;;;;;4993870;28;1474;-65
2021/07/07 09:24:48;;;;;;;;;;;21.60;76.00;;;;;;4976806;28;1465;-65
2021/07/07 09:27:15;;;;;;;;;;;21.60;76.00;;;;;;4992480;28;1149;-65
2021/07/07 09:29:40;;;;;;;;;;;21.60;75.90;;;;;;4991385;28;1565;-67
2021/07/07 09:32:28;;;;;;;;;;;21.60;76.00;;;;;;4994148;28;1645;-67
2021/07/07 09:35:03;;;;;;;;;;;21.60;75.90;;;;;;4992364;28;1966;-67
2021/07/07 09:37:34;;;;;;;;;;;21.60;76.00;;;;;;4978016;28;1172;-67
2021/07/07 09:39:59;;;;;;;;;;;21.60;76.00;;;;;;4995495;28;1701;-67
2021/07/07 09:42:28;;;;;;;;;;;21.60;76.00;;;;;;4995204;28;1653;-67
2021/07/07 09:44:54;;;;;;;;;;;21.60;76.10;;;;;;4977025;28;1430;-67
2021/07/07 09:47:20;;;;;;;;;;;21.60;76.00;;;;;;4977344;28;1656;-66
2021/07/07 09:49:48;;;;;;;;;;;21.60;76.10;;;;;;4995151;28;1508;-67
2021/07/07 09:52:24;;;;;;;;;;;21.60;76.10;;;;;;5022659;23;2022;-69
2021/07/07 09:54:49;;;;;;;;;;;21.60;76.10;;;;;;5002064;28;1898;-69
2021/07/07 09:57:15;;;;;;;;;;;21.60;76.10;;;;;;5013273;28;1318;-69
2021/07/07 09:59:40;;;;;;;;;;;21.60;76.10;;;;;;5014257;28;1057;-69
2021/07/07 10:02:06;;;;;;;;;;;21.60;76.10;;;;;;5013244;28;1407;-68
2021/07/07 10:04:34;;;;;;;;;;;21.60;76.20;;;;;;5014812;28;1171;-68
2021/07/07 10:06:59;;;;;;;;;;;21.60;76.20;;;;;;5014492;28;1116;-69
2021/07/07 10:09:25;;;;;;;;;;;21.60;76.20;;;;;;5014798;28;1080;-69
2021/07/07 10:11:51;;;;;;;;;;;21.60;76.20;;;;;;5000923;28;1280;-69
2021/07/07 10:14:16;;;;;;;;;;;21.60;76.20;;;;;;5012064;28;1956;-69
2021/07/07 10:16:41;;;;;;;;;;;21.60;76.10;;;;;;5013192;28;1139;-69
2021/07/07 10:19:07;;;;;;;;;;;21.60;76.10;;;;;;5014285;28;1064;-68
2021/07/07 10:21:32;;;;;;;;;;;21.60;76.10;;;;;;5013903;28;1364;-70
2021/07/07 10:23:58;;;;;;;;;;;21.60;76.10;;;;;;5014262;28;973;-68
2021/07/07 10:26:23;;;;;;;;;;;21.60;76.10;;;;;;5013274;28;1184;-70
2021/07/07 10:28:49;;;;;;;;;;;21.60;76.00;;;;;;5014478;28;1123;-70
2021/07/07 10:31:14;;;;;;;;;;;21.60;76.10;;;;;;5009323;28;1354;-69
2021/07/07 10:33:40;;;;;;;;;;;21.60;76.00;;;;;;5009287;28;1894;-70
2021/07/07 10:36:21;;;;;;;;;;;21.60;76.00;;;;;;5004047;28;1247;-69
2021/07/07 10:38:53;;;;;;;;;;;21.60;76.00;;;;;;5004576;28;1260;-69
2021/07/07 10:41:37;;;;;;;;;;;21.60;76.00;;;;;;5007930;28;1385;-73
2021/07/07 10:44:03;;;;;;;;;;;21.60;76.00;;;;;;5002803;28;1194;-71
2021/07/07 10:46:47;;;;;;;;;;;21.60;76.00;;;;;;5006329;28;1160;-72
2021/07/07 10:49:16;;;;;;;;;;;21.60;76.00;;;;;;5005213;28;1224;-71
2021/07/07 10:51:44;;;;;;;;;;;21.60;76.00;;;;;;5002707;28;1439;-70
2021/07/07 10:54:19;;;;;;;;;;;21.60;76.10;;;;;;5003252;28;1899;-69
2021/07/07 10:56:45;;;;;;;;;;;21.60;76.10;;;;;;5001375;28;1381;-71
2021/07/07 10:59:46;;;;;;;;;;;21.60;76.10;;;;;;5001678;28;1098;-70
2021/07/07 11:02:18;;;;;;;;;;;21.60;76.10;;;;;;4967510;28;1416;-69
2021/07/07 11:04:44;;;;;;;;;;;21.60;76.00;;;;;;4981143;28;1761;-70
2021/07/07 11:07:28;;;;;;;;;;;21.60;76.00;;;;;;5007431;28;1220;-68
2021/07/07 11:09:55;;;;;;;;;;;21.60;76.10;;;;;;5005075;28;1440;-71
2021/07/07 11:12:24;;;;;;;;;;;21.60;76.00;;;;;;5003024;28;1315;-67
2021/07/07 11:15:00;;;;;;;;;;;21.60;76.00;;;;;;4995292;28;1960;-65
2021/07/07 11:17:29;;;;;;;;;;;21.60;76.00;;;;;;5001409;28;1139;-70
2021/07/07 11:19:55;;;;;;;;;;;21.60;76.00;;;;;;5001859;28;1192;-67
2021/07/07 11:22:21;;;;;;;;;;;21.60;76.00;;;;;;4984793;28;1660;-68
2021/07/07 11:24:47;;;;;;;;;;;21.60;76.00;;;;;;4999204;28;1209;-70
2021/07/07 11:27:13;;;;;;;;;;;21.60;76.80;;;;;;5011477;28;1205;-69
2021/07/07 11:29:38;;;;;;;;;;;21.60;76.10;;;;;;5010726;28;1191;-69
2021/07/07 11:32:22;;;;;;;;;;;21.60;76.10;;;;;;5011819;28;1219;-69
2021/07/07 11:34:49;;;;;;;;;;;21.60;76.10;;;;;;5002189;28;2123;-68
2021/07/07 11:37:14;;;;;;;;;;;21.60;76.10;;;;;;5004355;28;1183;-68
2021/07/07 11:39:39;;;;;;;;;;;21.60;76.10;;;;;;5010717;28;1097;-69
2021/07/07 11:42:05;;;;;;;;;;;21.60;76.10;;;;;;5011450;28;1201;-69
2021/07/07 11:44:40;;;;;;;;;;;21.60;76.20;;;;;;5012955;28;1053;-69
2021/07/07 11:47:05;;;;;;;;;;;21.60;76.10;;;;;;5010310;28;1057;-71
2021/07/07 11:49:31;;;;;;;;;;;21.60;76.10;;;;;;5012038;28;1045;-70
2021/07/07 11:52:03;;;;;;;;;;;21.60;76.20;;;;;;5011319;28;1237;-70
2021/07/07 11:54:30;;;;;;;;;;;21.60;76.20;;;;;;5010356;28;1910;-69
2021/07/07 11:56:58;;;;;;;;;;;21.60;76.10;;;;;;4989397;28;1481;-69
2021/07/07 11:59:24;;;;;;;;;;;21.60;76.10;;;;;;5004211;28;1026;-69
2021/07/07 12:01:55;;;;;;;;;;;21.60;76.10;;;;;;5011842;28;1306;-70
2021/07/07 12:04:24;;;;;;;;;;;21.60;76.20;;;;;;4989507;28;1386;-68
2021/07/07 12:06:49;;;;;;;;;;;21.60;76.10;;;;;;5005448;28;1438;-68
2021/07/07 12:09:19;;;;;;;;;;;21.60;76.10;;;;;;5010490;28;1325;-69
2021/07/07 12:11:51;;;;;;;;;;;21.60;76.10;;;;;;5011063;28;1392;-69
2021/07/07 12:14:17;;;;;;;;;;;21.60;76.20;;;;;;5010059;28;1961;-67
2021/07/07 12:16:45;;;;;;;;;;;21.60;76.10;;;;;;5011097;28;1112;-68
2021/07/07 12:19:11;;;;;;;;;;;21.60;76.10;;;;;;5012409;28;1112;-66
2021/07/07 12:21:39;;;;;;;;;;;21.60;76.10;;;;;;5011034;28;1290;-67
2021/07/07 12:24:06;;;;;;;;;;;21.60;76.10;;;;;;5011682;28;1077;-70
2021/07/07 12:26:33;;;;;;;;;;;21.60;76.10;;;;;;5010757;28;1139;-69
2021/07/07 12:29:00;;;;;;;;;;;21.60;76.10;;;;;;5008276;28;1932;-68
2021/07/07 12:31:27;;;;;;;;;;;21.60;76.00;;;;;;5000076;28;1606;-70
2021/07/07 12:33:53;;;;;;;;;;;21.60;76.10;;;;;;4993521;28;1898;-70
2021/07/07 12:36:31;;;;;;;;;;;21.60;76.00;;;;;;5006429;28;1130;-68
2021/07/07 12:38:57;;;;;;;;;;;21.60;76.00;;;;;;4983058;28;1351;-68
2021/07/07 12:41:32;;;;;;;;;;;21.60;76.00;;;;;;5010144;28;1331;-68
2021/07/07 12:44:07;;;;;;;;;;;21.60;76.00;;;;;;5010651;28;1060;-67
2021/07/07 12:46:32;;;;;;;;;;;21.60;75.90;;;;;;5006406;28;1069;-67
2021/07/07 12:48:57;;;;;;;;;;;21.60;76.00;;;;;;5007494;28;1285;-67
2021/07/07 12:51:26;;;;;;;;;;;21.60;75.90;;;;;;5009462;28;1333;-67
2021/07/07 12:53:52;;;;;;;;;;;21.60;75.90;;;;;;5010421;28;1956;-68
2021/07/07 12:56:17;;;;;;;;;;;21.60;75.90;;;;;;5011071;28;1080;-67
2021/07/07 12:58:43;;;;;;;;;;;21.60;75.90;;;;;;5009648;28;1057;-69
2021/07/07 13:01:20;;;;;;;;;;;21.60;75.90;;;;;;5010992;28;1284;-71
2021/07/07 13:03:46;;;;;;;;;;;21.60;75.90;;;;;;5008132;28;1609;-70
2021/07/07 13:06:18;;;;;;;;;;;21.60;75.90;;;;;;5010225;28;1100;-70
2021/07/07 13:08:46;;;;;;;;;;;21.60;75.90;;;;;;5009542;28;1209;-69
2021/07/07 13:11:15;;;;;;;;;;;21.60;75.90;;;;;;5006024;28;1315;-70
2021/07/07 13:13:41;;;;;;;;;;;21.60;75.90;;;;;;5009321;28;1895;-70
2021/07/07 13:16:07;;;;;;;;;;;21.60;75.90;;;;;;5009892;28;1164;-70
2021/07/07 13:18:33;;;;;;;;;;;21.60;75.90;;;;;;5010456;28;1052;-70
2021/07/07 13:21:02;;;;;;;;;;;21.60;75.90;;;;;;5009278;28;1351;-68
2021/07/07 13:23:29;;;;;;;;;;;21.60;75.90;;;;;;5012132;28;1093;-68
2021/07/07 13:26:13;;;;;;;;;;;21.60;75.90;;;;;;5013907;28;1846;-68
2021/07/07 13:28:40;;;;;;;;;;;21.60;75.80;;;;;;5014421;28;1123;-69
2021/07/07 13:31:12;;;;;;;;;;;21.60;75.80;;;;;;5012792;28;1266;-69
2021/07/07 13:33:37;;;;;;;;;;;21.60;75.80;;;;;;5013409;28;1073;-70
2021/07/07 13:36:03;;;;;;;;;;;21.60;75.80;;;;;;5013592;28;1902;-69
2021/07/07 13:38:28;;;;;;;;;;;21.60;75.90;;;;;;5015521;28;1064;-70
2021/07/07 13:40:54;;;;;;;;;;;21.60;75.90;;;;;;5014706;28;1313;-70
2021/07/07 13:43:21;;;;;;;;;;;21.60;75.90;;;;;;5014053;28;1294;-69
2021/07/07 13:45:47;;;;;;;;;;;21.60;75.90;;;;;;5011694;28;1052;-70
2021/07/07 13:48:12;;;;;;;;;;;21.60;75.80;;;;;;5014452;28;1129;-70
2021/07/07 13:50:37;;;;;;;;;;;21.60;75.80;;;;;;5014617;28;1357;-70
2021/07/07 13:53:03;;;;;;;;;;;21.60;75.80;;;;;;5014530;28;1222;-70
2021/07/07 13:55:30;;;;;;;;;;;21.60;75.90;;;;;;5014409;28;1983;-70
2021/07/07 13:57:55;;;;;;;;;;;21.60;75.80;;;;;;5014078;28;1178;-70
2021/07/07 14:00:21;;;;;;;;;;;21.60;75.90;;;;;;5014389;28;1064;-70
2021/07/07 14:02:46;;;;;;;;;;;21.60;75.90;;;;;;5014010;28;1309;-73
2021/07/07 14:05:11;;;;;;;;;;;21.60;75.90;;;;;;5012851;28;1207;-69
2021/07/07 14:07:37;;;;;;;;;;;21.60;75.90;;;;;;5014604;28;1214;-70
2021/07/07 14:10:02;;;;;;;;;;;21.60;75.90;;;;;;5014966;28;1088;-69
2021/07/07 14:12:28;;;;;;;;;;;21.60;75.90;;;;;;5014751;28;1257;-70
2021/07/07 14:14:53;;;;;;;;;;;21.60;75.90;;;;;;5014079;28;1961;-69
2021/07/07 14:17:19;;;;;;;;;;;21.60;75.90;;;;;;5014555;28;1318;-70
2021/07/07 14:19:44;;;;;;;;;;;21.60;76.00;;;;;;5014694;28;1159;-70
2021/07/07 14:22:10;;;;;;;;;;;21.60;76.00;;;;;;5013012;28;1591;-70
2021/07/07 14:24:35;;;;;;;;;;;21.60;76.00;;;;;;5013601;28;1065;-72
2021/07/07 14:27:01;;;;;;;;;;;21.60;76.00;;;;;;5014814;28;1439;-69